sensor_id;sensor_type;location;lat;lon;timestamp;P1;durP1;ratioP1;P2;durP2;ratioP2
76935;SDS011;65881;52.438;16.744;2023-03-19T00:00:05;97.10;;;55.55;;
76935;SDS011;65881;52.438;16.744;2023-03-19T00:02:35;90.40;;;51.60;;
76935;SDS011;65881;52.438;16.744;2023-03-19T00:05:03;94.45;;;55.25;;
76935;SDS011;65881;52.438;16.744;2023-03-19T00:07:29;93.70;;;51.65;;
76935;SDS011;65881;52.438;16.744;2023-03-19T00:09:55;90.20;;;51.47;;
76935;SDS011;65881;52.438;16.744;2023-03-19T00:12:23;91.35;;;49.42;;
76935;SDS011;65881;52.438;16.744;2023-03-19T00:14:49;97.97;;;52.78;;
76935;SDS011;65881;52.438;16.744;2023-03-19T00:17:15;96.80;;;53.10;;
76935;SDS011;65881;52.438;16.744;2023-03-19T00:19:41;98.53;;;56.42;;
76935;SDS011;65881;52.438;16.744;2023-03-19T00:22:07;101.25;;;53.08;;
76935;SDS011;65881;52.438;16.744;2023-03-19T00:24:33;95.05;;;53.90;;
76935;SDS011;65881;52.438;16.744;2023-03-19T00:26:59;96.35;;;52.47;;
76935;SDS011;65881;52.438;16.744;2023-03-19T00:29:25;94.72;;;51.67;;
76935;SDS011;65881;52.438;16.744;2023-03-19T00:31:51;93.70;;;49.40;;
76935;SDS011;65881;52.438;16.744;2023-03-19T00:34:17;95.80;;;51.47;;
76935;SDS011;65881;52.438;16.744;2023-03-19T00:36:43;89.70;;;48.28;;
76935;SDS011;65881;52.438;16.744;2023-03-19T00:39:09;89.97;;;46.63;;
76935;SDS011;65881;52.438;16.744;2023-03-19T00:41:35;93.25;;;50.92;;
76935;SDS011;65881;52.438;16.744;2023-03-19T00:44:02;93.78;;;47.88;;
76935;SDS011;65881;52.438;16.744;2023-03-19T00:46:28;87.13;;;46.15;;
76935;SDS011;65881;52.438;16.744;2023-03-19T00:48:54;92.53;;;47.60;;
76935;SDS011;65881;52.438;16.744;2023-03-19T00:51:21;88.97;;;48.30;;
76935;SDS011;65881;52.438;16.744;2023-03-19T00:53:48;87.57;;;49.58;;
76935;SDS011;65881;52.438;16.744;2023-03-19T00:56:14;93.53;;;48.45;;
76935;SDS011;65881;52.438;16.744;2023-03-19T00:58:42;87.55;;;45.38;;
76935;SDS011;65881;52.438;16.744;2023-03-19T01:01:09;84.47;;;47.33;;
76935;SDS011;65881;52.438;16.744;2023-03-19T01:03:36;80.20;;;46.15;;
76935;SDS011;65881;52.438;16.744;2023-03-19T01:06:02;80.95;;;45.33;;
76935;SDS011;65881;52.438;16.744;2023-03-19T01:08:29;79.00;;;44.33;;
76935;SDS011;65881;52.438;16.744;2023-03-19T01:10:55;84.07;;;44.97;;
76935;SDS011;65881;52.438;16.744;2023-03-19T01:13:21;82.05;;;43.15;;
76935;SDS011;65881;52.438;16.744;2023-03-19T01:15:50;74.35;;;42.85;;
76935;SDS011;65881;52.438;16.744;2023-03-19T01:18:16;77.30;;;41.72;;
76935;SDS011;65881;52.438;16.744;2023-03-19T01:20:42;81.53;;;43.88;;
76935;SDS011;65881;52.438;16.744;2023-03-19T01:23:08;74.45;;;42.13;;
76935;SDS011;65881;52.438;16.744;2023-03-19T01:25:33;78.20;;;44.08;;
76935;SDS011;65881;52.438;16.744;2023-03-19T01:28:00;78.40;;;43.13;;
76935;SDS011;65881;52.438;16.744;2023-03-19T01:30:25;78.55;;;43.92;;
76935;SDS011;65881;52.438;16.744;2023-03-19T01:32:51;77.93;;;42.83;;
76935;SDS011;65881;52.438;16.744;2023-03-19T01:35:17;80.82;;;43.40;;
76935;SDS011;65881;52.438;16.744;2023-03-19T01:37:43;84.25;;;42.40;;
76935;SDS011;65881;52.438;16.744;2023-03-19T01:40:09;78.78;;;41.55;;
76935;SDS011;65881;52.438;16.744;2023-03-19T01:48:17;70.00;;;38.03;;
76935;SDS011;65881;52.438;16.744;2023-03-19T01:50:53;63.17;;;36.53;;
76935;SDS011;65881;52.438;16.744;2023-03-19T01:53:27;74.60;;;42.92;;
76935;SDS011;65881;52.438;16.744;2023-03-19T01:55:56;79.57;;;38.38;;
76935;SDS011;65881;52.438;16.744;2023-03-19T01:58:28;69.80;;;37.92;;
76935;SDS011;65881;52.438;16.744;2023-03-19T02:00:54;74.55;;;41.90;;
76935;SDS011;65881;52.438;16.744;2023-03-19T02:03:21;79.43;;;39.05;;
76935;SDS011;65881;52.438;16.744;2023-03-19T02:05:48;66.55;;;36.83;;
76935;SDS011;65881;52.438;16.744;2023-03-19T02:08:16;73.78;;;39.13;;
76935;SDS011;65881;52.438;16.744;2023-03-19T02:10:47;70.45;;;38.35;;
76935;SDS011;65881;52.438;16.744;2023-03-19T02:13:14;72.15;;;42.83;;
76935;SDS011;65881;52.438;16.744;2023-03-19T02:15:40;76.35;;;39.80;;
76935;SDS011;65881;52.438;16.744;2023-03-19T02:18:06;71.50;;;37.72;;
76935;SDS011;65881;52.438;16.744;2023-03-19T02:23:32;68.25;;;34.60;;
76935;SDS011;65881;52.438;16.744;2023-03-19T02:26:04;69.57;;;35.17;;
76935;SDS011;65881;52.438;16.744;2023-03-19T02:28:32;66.53;;;37.58;;
76935;SDS011;65881;52.438;16.744;2023-03-19T02:31:00;70.70;;;38.38;;
76935;SDS011;65881;52.438;16.744;2023-03-19T02:33:26;68.82;;;36.25;;
76935;SDS011;65881;52.438;16.744;2023-03-19T02:35:52;66.60;;;36.80;;
76935;SDS011;65881;52.438;16.744;2023-03-19T02:38:20;68.43;;;38.03;;
76935;SDS011;65881;52.438;16.744;2023-03-19T02:41:22;59.35;;;34.95;;
76935;SDS011;65881;52.438;16.744;2023-03-19T02:43:42;65.25;;;35.55;;
76935;SDS011;65881;52.438;16.744;2023-03-19T02:46:09;68.53;;;38.38;;
76935;SDS011;65881;52.438;16.744;2023-03-19T02:48:37;69.60;;;37.75;;
76935;SDS011;65881;52.438;16.744;2023-03-19T02:51:04;62.15;;;36.70;;
76935;SDS011;65881;52.438;16.744;2023-03-19T02:53:30;67.20;;;35.70;;
76935;SDS011;65881;52.438;16.744;2023-03-19T02:55:55;72.53;;;38.47;;
76935;SDS011;65881;52.438;16.744;2023-03-19T02:58:21;74.40;;;41.63;;
76935;SDS011;65881;52.438;16.744;2023-03-19T03:00:47;72.15;;;38.90;;
76935;SDS011;65881;52.438;16.744;2023-03-19T03:03:13;73.30;;;38.42;;
76935;SDS011;65881;52.438;16.744;2023-03-19T03:05:39;81.93;;;42.72;;
76935;SDS011;65881;52.438;16.744;2023-03-19T03:08:05;88.13;;;41.60;;
76935;SDS011;65881;52.438;16.744;2023-03-19T03:10:31;82.28;;;42.35;;
76935;SDS011;65881;52.438;16.744;2023-03-19T03:12:57;82.70;;;43.90;;
76935;SDS011;65881;52.438;16.744;2023-03-19T03:15:23;91.07;;;44.83;;
76935;SDS011;65881;52.438;16.744;2023-03-19T03:17:50;79.55;;;44.22;;
76935;SDS011;65881;52.438;16.744;2023-03-19T03:20:16;88.93;;;47.60;;
76935;SDS011;65881;52.438;16.744;2023-03-19T03:22:44;97.28;;;48.38;;
76935;SDS011;65881;52.438;16.744;2023-03-19T03:25:10;84.18;;;46.03;;
76935;SDS011;65881;52.438;16.744;2023-03-19T03:27:37;82.43;;;48.35;;
76935;SDS011;65881;52.438;16.744;2023-03-19T03:30:03;95.68;;;47.28;;
76935;SDS011;65881;52.438;16.744;2023-03-19T03:32:30;89.47;;;46.78;;
76935;SDS011;65881;52.438;16.744;2023-03-19T03:34:56;89.93;;;47.15;;
76935;SDS011;65881;52.438;16.744;2023-03-19T03:37:22;89.38;;;47.65;;
76935;SDS011;65881;52.438;16.744;2023-03-19T03:39:48;83.55;;;44.67;;
76935;SDS011;65881;52.438;16.744;2023-03-19T03:42:15;80.35;;;43.53;;
76935;SDS011;65881;52.438;16.744;2023-03-19T03:44:40;87.50;;;43.33;;
76935;SDS011;65881;52.438;16.744;2023-03-19T03:47:06;88.60;;;44.17;;
76935;SDS011;65881;52.438;16.744;2023-03-19T03:49:32;94.53;;;44.03;;
76935;SDS011;65881;52.438;16.744;2023-03-19T03:51:58;83.03;;;44.28;;
76935;SDS011;65881;52.438;16.744;2023-03-19T03:54:23;86.63;;;44.65;;
76935;SDS011;65881;52.438;16.744;2023-03-19T03:56:49;76.65;;;42.80;;
76935;SDS011;65881;52.438;16.744;2023-03-19T03:59:15;83.63;;;43.83;;
76935;SDS011;65881;52.438;16.744;2023-03-19T04:01:41;85.68;;;44.83;;
76935;SDS011;65881;52.438;16.744;2023-03-19T04:04:07;73.43;;;44.35;;
76935;SDS011;65881;52.438;16.744;2023-03-19T04:06:34;80.75;;;43.65;;
76935;SDS011;65881;52.438;16.744;2023-03-19T04:09:00;87.20;;;46.33;;
76935;SDS011;65881;52.438;16.744;2023-03-19T04:11:26;82.85;;;44.85;;
76935;SDS011;65881;52.438;16.744;2023-03-19T04:13:55;84.82;;;46.95;;
76935;SDS011;65881;52.438;16.744;2023-03-19T04:16:22;75.47;;;42.70;;
76935;SDS011;65881;52.438;16.744;2023-03-19T04:18:48;79.85;;;42.70;;
76935;SDS011;65881;52.438;16.744;2023-03-19T04:21:14;83.63;;;42.72;;
76935;SDS011;65881;52.438;16.744;2023-03-19T04:23:40;77.22;;;42.00;;
76935;SDS011;65881;52.438;16.744;2023-03-19T04:26:06;83.75;;;42.33;;
76935;SDS011;65881;52.438;16.744;2023-03-19T04:28:32;87.10;;;45.67;;
76935;SDS011;65881;52.438;16.744;2023-03-19T04:31:02;74.80;;;40.47;;
76935;SDS011;65881;52.438;16.744;2023-03-19T04:33:29;82.53;;;43.28;;
76935;SDS011;65881;52.438;16.744;2023-03-19T04:35:56;77.00;;;41.35;;
76935;SDS011;65881;52.438;16.744;2023-03-19T04:38:22;80.72;;;42.70;;
76935;SDS011;65881;52.438;16.744;2023-03-19T04:40:52;87.90;;;43.75;;
76935;SDS011;65881;52.438;16.744;2023-03-19T04:43:21;79.63;;;40.63;;
76935;SDS011;65881;52.438;16.744;2023-03-19T04:45:47;78.22;;;39.55;;
76935;SDS011;65881;52.438;16.744;2023-03-19T04:48:14;78.40;;;41.15;;
76935;SDS011;65881;52.438;16.744;2023-03-19T04:50:41;73.65;;;39.72;;
76935;SDS011;65881;52.438;16.744;2023-03-19T04:53:06;72.53;;;40.83;;
76935;SDS011;65881;52.438;16.744;2023-03-19T04:55:33;75.45;;;40.30;;
76935;SDS011;65881;52.438;16.744;2023-03-19T04:57:59;78.72;;;41.35;;
76935;SDS011;65881;52.438;16.744;2023-03-19T05:00:25;72.45;;;40.40;;
76935;SDS011;65881;52.438;16.744;2023-03-19T05:02:52;75.82;;;41.15;;
76935;SDS011;65881;52.438;16.744;2023-03-19T05:05:17;69.53;;;37.42;;
76935;SDS011;65881;52.438;16.744;2023-03-19T05:07:43;74.78;;;37.83;;
76935;SDS011;65881;52.438;16.744;2023-03-19T05:10:09;70.13;;;38.53;;
76935;SDS011;65881;52.438;16.744;2023-03-19T05:12:35;65.85;;;33.78;;
76935;SDS011;65881;52.438;16.744;2023-03-19T05:15:01;63.42;;;34.53;;
76935;SDS011;65881;52.438;16.744;2023-03-19T05:17:29;66.63;;;37.75;;
76935;SDS011;65881;52.438;16.744;2023-03-19T05:19:56;57.47;;;34.03;;
76935;SDS011;65881;52.438;16.744;2023-03-19T05:22:22;63.05;;;36.63;;
76935;SDS011;65881;52.438;16.744;2023-03-19T05:24:48;62.88;;;34.42;;
76935;SDS011;65881;52.438;16.744;2023-03-19T05:27:14;58.05;;;33.42;;
76935;SDS011;65881;52.438;16.744;2023-03-19T05:29:42;69.53;;;35.33;;
76935;SDS011;65881;52.438;16.744;2023-03-19T05:32:08;68.72;;;36.47;;
76935;SDS011;65881;52.438;16.744;2023-03-19T05:34:34;65.25;;;36.95;;
76935;SDS011;65881;52.438;16.744;2023-03-19T05:37:01;68.38;;;38.13;;
76935;SDS011;65881;52.438;16.744;2023-03-19T05:39:27;70.78;;;36.83;;
76935;SDS011;65881;52.438;16.744;2023-03-19T05:41:52;71.05;;;39.33;;
76935;SDS011;65881;52.438;16.744;2023-03-19T05:44:18;70.50;;;37.70;;
76935;SDS011;65881;52.438;16.744;2023-03-19T05:46:45;66.53;;;38.25;;
76935;SDS011;65881;52.438;16.744;2023-03-19T05:49:11;71.65;;;39.22;;
76935;SDS011;65881;52.438;16.744;2023-03-19T05:51:36;72.03;;;36.90;;
76935;SDS011;65881;52.438;16.744;2023-03-19T05:54:02;74.45;;;40.13;;
76935;SDS011;65881;52.438;16.744;2023-03-19T05:56:28;79.80;;;41.97;;
76935;SDS011;65881;52.438;16.744;2023-03-19T05:58:54;79.00;;;39.67;;
76935;SDS011;65881;52.438;16.744;2023-03-19T06:01:20;71.03;;;38.63;;
76935;SDS011;65881;52.438;16.744;2023-03-19T06:03:46;70.80;;;38.22;;
76935;SDS011;65881;52.438;16.744;2023-03-19T06:06:12;75.20;;;40.30;;
76935;SDS011;65881;52.438;16.744;2023-03-19T06:08:38;73.03;;;38.63;;
76935;SDS011;65881;52.438;16.744;2023-03-19T06:11:16;74.32;;;41.33;;
76935;SDS011;65881;52.438;16.744;2023-03-19T06:14:14;68.82;;;35.65;;
76935;SDS011;65881;52.438;16.744;2023-03-19T06:16:39;74.75;;;37.88;;
76935;SDS011;65881;52.438;16.744;2023-03-19T06:19:05;78.10;;;40.13;;
76935;SDS011;65881;52.438;16.744;2023-03-19T06:21:31;72.57;;;40.00;;
76935;SDS011;65881;52.438;16.744;2023-03-19T06:24:00;75.40;;;38.95;;
76935;SDS011;65881;52.438;16.744;2023-03-19T06:26:25;78.75;;;41.90;;
76935;SDS011;65881;52.438;16.744;2023-03-19T06:28:51;70.90;;;41.22;;
76935;SDS011;65881;52.438;16.744;2023-03-19T06:31:18;79.97;;;43.65;;
76935;SDS011;65881;52.438;16.744;2023-03-19T06:33:43;69.65;;;41.95;;
76935;SDS011;65881;52.438;16.744;2023-03-19T06:36:09;79.60;;;44.03;;
76935;SDS011;65881;52.438;16.744;2023-03-19T06:38:35;78.47;;;43.97;;
76935;SDS011;65881;52.438;16.744;2023-03-19T06:41:01;83.05;;;42.60;;
76935;SDS011;65881;52.438;16.744;2023-03-19T06:43:28;69.45;;;40.42;;
76935;SDS011;65881;52.438;16.744;2023-03-19T06:45:56;71.97;;;42.67;;
76935;SDS011;65881;52.438;16.744;2023-03-19T06:48:22;76.97;;;42.08;;
76935;SDS011;65881;52.438;16.744;2023-03-19T06:50:49;76.53;;;44.15;;
76935;SDS011;65881;52.438;16.744;2023-03-19T06:53:15;76.80;;;42.75;;
76935;SDS011;65881;52.438;16.744;2023-03-19T06:55:41;72.45;;;39.35;;
76935;SDS011;65881;52.438;16.744;2023-03-19T06:58:09;68.03;;;38.40;;
76935;SDS011;65881;52.438;16.744;2023-03-19T07:00:35;69.75;;;41.20;;
76935;SDS011;65881;52.438;16.744;2023-03-19T07:03:01;55.03;;;33.42;;
76935;SDS011;65881;52.438;16.744;2023-03-19T07:05:26;64.40;;;35.78;;
76935;SDS011;65881;52.438;16.744;2023-03-19T07:07:52;59.50;;;36.47;;
76935;SDS011;65881;52.438;16.744;2023-03-19T07:10:18;71.65;;;39.67;;
76935;SDS011;65881;52.438;16.744;2023-03-19T07:12:44;62.40;;;39.05;;
76935;SDS011;65881;52.438;16.744;2023-03-19T07:15:10;75.10;;;38.67;;
76935;SDS011;65881;52.438;16.744;2023-03-19T07:17:36;68.82;;;37.90;;
76935;SDS011;65881;52.438;16.744;2023-03-19T07:20:02;74.82;;;41.38;;
76935;SDS011;65881;52.438;16.744;2023-03-19T07:22:28;64.47;;;37.00;;
76935;SDS011;65881;52.438;16.744;2023-03-19T07:24:54;62.38;;;37.22;;
76935;SDS011;65881;52.438;16.744;2023-03-19T07:27:20;62.45;;;37.08;;
76935;SDS011;65881;52.438;16.744;2023-03-19T07:29:48;64.88;;;37.85;;
76935;SDS011;65881;52.438;16.744;2023-03-19T07:32:13;63.72;;;37.45;;
76935;SDS011;65881;52.438;16.744;2023-03-19T07:34:39;64.05;;;36.00;;
76935;SDS011;65881;52.438;16.744;2023-03-19T07:37:05;63.83;;;36.40;;
76935;SDS011;65881;52.438;16.744;2023-03-19T07:39:31;64.05;;;36.03;;
76935;SDS011;65881;52.438;16.744;2023-03-19T07:41:58;78.07;;;40.38;;
76935;SDS011;65881;52.438;16.744;2023-03-19T07:44:23;58.85;;;35.65;;
76935;SDS011;65881;52.438;16.744;2023-03-19T07:46:49;63.55;;;37.40;;
76935;SDS011;65881;52.438;16.744;2023-03-19T07:49:15;62.13;;;34.53;;
76935;SDS011;65881;52.438;16.744;2023-03-19T07:51:41;68.68;;;38.42;;
76935;SDS011;65881;52.438;16.744;2023-03-19T07:54:07;62.67;;;35.42;;
76935;SDS011;65881;52.438;16.744;2023-03-19T07:56:32;66.63;;;38.45;;
76935;SDS011;65881;52.438;16.744;2023-03-19T07:58:58;59.63;;;36.63;;
76935;SDS011;65881;52.438;16.744;2023-03-19T08:01:24;57.28;;;33.80;;
76935;SDS011;65881;52.438;16.744;2023-03-19T08:03:50;62.58;;;34.63;;
76935;SDS011;65881;52.438;16.744;2023-03-19T08:06:16;55.47;;;32.50;;
76935;SDS011;65881;52.438;16.744;2023-03-19T08:08:42;51.72;;;31.83;;
76935;SDS011;65881;52.438;16.744;2023-03-19T08:11:07;57.30;;;34.15;;
76935;SDS011;65881;52.438;16.744;2023-03-19T08:13:33;55.03;;;31.60;;
76935;SDS011;65881;52.438;16.744;2023-03-19T08:15:59;51.67;;;31.35;;
76935;SDS011;65881;52.438;16.744;2023-03-19T08:18:25;57.10;;;31.30;;
76935;SDS011;65881;52.438;16.744;2023-03-19T08:20:51;55.08;;;33.72;;
76935;SDS011;65881;52.438;16.744;2023-03-19T08:23:17;55.17;;;32.83;;
76935;SDS011;65881;52.438;16.744;2023-03-19T08:25:43;47.47;;;29.10;;
76935;SDS011;65881;52.438;16.744;2023-03-19T08:28:09;53.47;;;34.05;;
76935;SDS011;65881;52.438;16.744;2023-03-19T08:30:36;51.38;;;32.38;;
76935;SDS011;65881;52.438;16.744;2023-03-19T08:33:02;56.88;;;33.40;;
76935;SDS011;65881;52.438;16.744;2023-03-19T08:35:28;55.25;;;33.85;;
76935;SDS011;65881;52.438;16.744;2023-03-19T08:37:55;53.05;;;33.35;;
76935;SDS011;65881;52.438;16.744;2023-03-19T08:40:21;53.45;;;32.33;;
76935;SDS011;65881;52.438;16.744;2023-03-19T08:42:48;48.80;;;31.23;;
76935;SDS011;65881;52.438;16.744;2023-03-19T08:45:14;42.83;;;27.00;;
76935;SDS011;65881;52.438;16.744;2023-03-19T08:47:41;47.67;;;30.13;;
76935;SDS011;65881;52.438;16.744;2023-03-19T08:50:07;50.95;;;30.25;;
76935;SDS011;65881;52.438;16.744;2023-03-19T08:52:41;47.75;;;30.45;;
76935;SDS011;65881;52.438;16.744;2023-03-19T08:55:07;50.67;;;30.55;;
76935;SDS011;65881;52.438;16.744;2023-03-19T08:57:34;53.60;;;31.27;;
76935;SDS011;65881;52.438;16.744;2023-03-19T09:00:02;44.08;;;30.10;;
76935;SDS011;65881;52.438;16.744;2023-03-19T09:02:29;47.47;;;29.92;;
76935;SDS011;65881;52.438;16.744;2023-03-19T09:04:55;51.75;;;29.73;;
76935;SDS011;65881;52.438;16.744;2023-03-19T09:07:21;45.35;;;27.08;;
76935;SDS011;65881;52.438;16.744;2023-03-19T09:09:47;43.60;;;28.45;;
76935;SDS011;65881;52.438;16.744;2023-03-19T09:12:14;47.28;;;27.38;;
76935;SDS011;65881;52.438;16.744;2023-03-19T09:14:42;38.40;;;23.90;;
76935;SDS011;65881;52.438;16.744;2023-03-19T09:17:08;39.80;;;25.10;;
76935;SDS011;65881;52.438;16.744;2023-03-19T09:19:35;46.20;;;25.48;;
76935;SDS011;65881;52.438;16.744;2023-03-19T09:22:01;35.80;;;24.55;;
76935;SDS011;65881;52.438;16.744;2023-03-19T09:24:28;33.17;;;23.63;;
76935;SDS011;65881;52.438;16.744;2023-03-19T09:26:54;44.35;;;25.80;;
76935;SDS011;65881;52.438;16.744;2023-03-19T09:29:20;43.70;;;24.77;;
76935;SDS011;65881;52.438;16.744;2023-03-19T09:31:46;43.10;;;24.30;;
76935;SDS011;65881;52.438;16.744;2023-03-19T09:34:11;40.25;;;22.55;;
76935;SDS011;65881;52.438;16.744;2023-03-19T09:36:38;36.85;;;23.73;;
76935;SDS011;65881;52.438;16.744;2023-03-19T09:39:04;32.13;;;20.48;;
76935;SDS011;65881;52.438;16.744;2023-03-19T09:44:28;34.28;;;19.30;;
76935;SDS011;65881;52.438;16.744;2023-03-19T09:50:02;26.70;;;17.67;;
76935;SDS011;65881;52.438;16.744;2023-03-19T09:52:57;26.45;;;17.38;;
76935;SDS011;65881;52.438;16.744;2023-03-19T09:55:39;29.42;;;18.35;;
76935;SDS011;65881;52.438;16.744;2023-03-19T10:01:00;25.98;;;16.17;;
76935;SDS011;65881;52.438;16.744;2023-03-19T10:11:47;23.88;;;14.63;;
76935;SDS011;65881;52.438;16.744;2023-03-19T10:17:18;24.58;;;16.08;;
76935;SDS011;65881;52.438;16.744;2023-03-19T10:20:08;25.30;;;15.35;;
76935;SDS011;65881;52.438;16.744;2023-03-19T10:22:46;28.77;;;14.38;;
76935;SDS011;65881;52.438;16.744;2023-03-19T10:25:19;23.85;;;15.57;;
76935;SDS011;65881;52.438;16.744;2023-03-19T10:30:34;24.85;;;15.27;;
76935;SDS011;65881;52.438;16.744;2023-03-19T10:36:11;33.45;;;14.80;;
76935;SDS011;65881;52.438;16.744;2023-03-19T10:38:39;22.08;;;13.52;;
76935;SDS011;65881;52.438;16.744;2023-03-19T10:41:19;25.65;;;15.50;;
76935;SDS011;65881;52.438;16.744;2023-03-19T10:43:55;25.48;;;14.30;;
76935;SDS011;65881;52.438;16.744;2023-03-19T10:46:26;24.58;;;15.45;;
76935;SDS011;65881;52.438;16.744;2023-03-19T10:48:54;24.75;;;15.93;;
76935;SDS011;65881;52.438;16.744;2023-03-19T10:51:23;25.35;;;17.45;;
76935;SDS011;65881;52.438;16.744;2023-03-19T10:53:51;26.15;;;15.68;;
76935;SDS011;65881;52.438;16.744;2023-03-19T10:58:59;25.75;;;16.88;;
76935;SDS011;65881;52.438;16.744;2023-03-19T11:01:32;25.63;;;14.93;;
76935;SDS011;65881;52.438;16.744;2023-03-19T11:04:00;26.92;;;15.60;;
76935;SDS011;65881;52.438;16.744;2023-03-19T11:06:35;24.10;;;14.75;;
76935;SDS011;65881;52.438;16.744;2023-03-19T11:11:35;29.92;;;16.65;;
76935;SDS011;65881;52.438;16.744;2023-03-19T11:14:08;25.42;;;14.80;;
76935;SDS011;65881;52.438;16.744;2023-03-19T11:16:56;34.22;;;16.85;;
76935;SDS011;65881;52.438;16.744;2023-03-19T11:19:50;25.15;;;15.13;;
76935;SDS011;65881;52.438;16.744;2023-03-19T11:25:17;26.73;;;16.27;;
76935;SDS011;65881;52.438;16.744;2023-03-19T11:27:59;27.67;;;15.88;;
76935;SDS011;65881;52.438;16.744;2023-03-19T11:30:31;20.98;;;15.05;;
76935;SDS011;65881;52.438;16.744;2023-03-19T11:38:15;25.23;;;15.88;;
76935;SDS011;65881;52.438;16.744;2023-03-19T11:43:58;21.98;;;14.02;;
76935;SDS011;65881;52.438;16.744;2023-03-19T11:47:11;24.25;;;14.70;;
76935;SDS011;65881;52.438;16.744;2023-03-19T11:49:50;26.23;;;17.00;;
76935;SDS011;65881;52.438;16.744;2023-03-19T11:53:18;29.15;;;15.52;;
76935;SDS011;65881;52.438;16.744;2023-03-19T11:55:24;29.25;;;16.25;;
76935;SDS011;65881;52.438;16.744;2023-03-19T12:00:55;27.90;;;16.85;;
76935;SDS011;65881;52.438;16.744;2023-03-19T12:06:35;29.45;;;18.02;;
76935;SDS011;65881;52.438;16.744;2023-03-19T12:15:04;27.00;;;16.30;;
76935;SDS011;65881;52.438;16.744;2023-03-19T12:17:38;27.65;;;18.17;;
76935;SDS011;65881;52.438;16.744;2023-03-19T12:20:21;28.65;;;18.60;;
76935;SDS011;65881;52.438;16.744;2023-03-19T12:23:38;30.88;;;18.13;;
76935;SDS011;65881;52.438;16.744;2023-03-19T12:26:10;34.25;;;17.45;;
76935;SDS011;65881;52.438;16.744;2023-03-19T12:28:56;25.75;;;16.05;;
76935;SDS011;65881;52.438;16.744;2023-03-19T12:31:49;27.98;;;18.52;;
76935;SDS011;65881;52.438;16.744;2023-03-19T12:34:34;29.60;;;17.30;;
76935;SDS011;65881;52.438;16.744;2023-03-19T12:37:23;31.85;;;19.00;;
76935;SDS011;65881;52.438;16.744;2023-03-19T12:42:56;26.58;;;16.88;;
76935;SDS011;65881;52.438;16.744;2023-03-19T12:48:04;29.10;;;17.15;;
76935;SDS011;65881;52.438;16.744;2023-03-19T12:50:45;30.17;;;18.27;;
76935;SDS011;65881;52.438;16.744;2023-03-19T12:53:18;26.80;;;17.98;;
76935;SDS011;65881;52.438;16.744;2023-03-19T12:56:07;26.25;;;18.45;;
76935;SDS011;65881;52.438;16.744;2023-03-19T12:59:08;29.83;;;18.95;;
76935;SDS011;65881;52.438;16.744;2023-03-19T13:02:11;29.58;;;17.80;;
76935;SDS011;65881;52.438;16.744;2023-03-19T13:04:46;30.73;;;17.42;;
76935;SDS011;65881;52.438;16.744;2023-03-19T13:12:34;26.60;;;16.80;;
76935;SDS011;65881;52.438;16.744;2023-03-19T13:23:47;25.90;;;18.08;;
76935;SDS011;65881;52.438;16.744;2023-03-19T13:26:23;31.65;;;18.88;;
76935;SDS011;65881;52.438;16.744;2023-03-19T13:31:32;30.30;;;18.38;;
76935;SDS011;65881;52.438;16.744;2023-03-19T13:36:47;28.83;;;17.10;;
76935;SDS011;65881;52.438;16.744;2023-03-19T13:39:19;29.63;;;18.15;;
76935;SDS011;65881;52.438;16.744;2023-03-19T13:41:56;27.33;;;16.95;;
76935;SDS011;65881;52.438;16.744;2023-03-19T13:44:42;25.58;;;17.73;;
76935;SDS011;65881;52.438;16.744;2023-03-19T13:58:24;31.85;;;20.17;;
76935;SDS011;65881;52.438;16.744;2023-03-19T14:01:05;24.75;;;17.67;;
76935;SDS011;65881;52.438;16.744;2023-03-19T14:03:35;30.17;;;18.58;;
76935;SDS011;65881;52.438;16.744;2023-03-19T14:06:11;30.33;;;17.77;;
76935;SDS011;65881;52.438;16.744;2023-03-19T14:11:53;26.70;;;17.70;;
76935;SDS011;65881;52.438;16.744;2023-03-19T14:17:31;26.17;;;18.17;;
76935;SDS011;65881;52.438;16.744;2023-03-19T14:25:14;29.17;;;19.65;;
76935;SDS011;65881;52.438;16.744;2023-03-19T14:28:01;28.65;;;19.17;;
76935;SDS011;65881;52.438;16.744;2023-03-19T14:30:44;33.15;;;21.08;;
76935;SDS011;65881;52.438;16.744;2023-03-19T14:33:16;32.33;;;20.60;;
76935;SDS011;65881;52.438;16.744;2023-03-19T14:36:03;30.83;;;21.25;;
76935;SDS011;65881;52.438;16.744;2023-03-19T14:38:34;35.10;;;21.60;;
76935;SDS011;65881;52.438;16.744;2023-03-19T14:41:11;32.67;;;20.65;;
76935;SDS011;65881;52.438;16.744;2023-03-19T14:44:12;32.20;;;21.05;;
76935;SDS011;65881;52.438;16.744;2023-03-19T14:55:48;28.20;;;18.13;;
76935;SDS011;65881;52.438;16.744;2023-03-19T15:00:54;33.88;;;21.83;;
76935;SDS011;65881;52.438;16.744;2023-03-19T15:03:32;29.65;;;21.85;;
76935;SDS011;65881;52.438;16.744;2023-03-19T15:06:03;29.42;;;19.25;;
76935;SDS011;65881;52.438;16.744;2023-03-19T15:08:31;34.33;;;21.20;;
76935;SDS011;65881;52.438;16.744;2023-03-19T15:19:16;31.75;;;18.85;;
76935;SDS011;65881;52.438;16.744;2023-03-19T15:21:50;34.05;;;19.40;;
76935;SDS011;65881;52.438;16.744;2023-03-19T15:24:16;27.05;;;18.38;;
76935;SDS011;65881;52.438;16.744;2023-03-19T15:26:42;30.77;;;18.50;;
76935;SDS011;65881;52.438;16.744;2023-03-19T15:29:08;23.75;;;18.60;;
76935;SDS011;65881;52.438;16.744;2023-03-19T15:31:45;27.38;;;17.90;;
76935;SDS011;65881;52.438;16.744;2023-03-19T15:34:16;25.13;;;16.58;;
76935;SDS011;65881;52.438;16.744;2023-03-19T15:36:51;25.60;;;18.25;;
76935;SDS011;65881;52.438;16.744;2023-03-19T15:39:21;30.92;;;19.10;;
76935;SDS011;65881;52.438;16.744;2023-03-19T15:41:52;31.83;;;19.48;;
76935;SDS011;65881;52.438;16.744;2023-03-19T15:44:28;27.95;;;18.52;;
76935;SDS011;65881;52.438;16.744;2023-03-19T15:47:00;29.00;;;18.90;;
76935;SDS011;65881;52.438;16.744;2023-03-19T15:49:30;30.02;;;19.45;;
76935;SDS011;65881;52.438;16.744;2023-03-19T15:52:04;33.15;;;21.08;;
76935;SDS011;65881;52.438;16.744;2023-03-19T15:54:35;30.17;;;18.55;;
76935;SDS011;65881;52.438;16.744;2023-03-19T15:57:01;33.47;;;21.55;;
76935;SDS011;65881;52.438;16.744;2023-03-19T15:59:27;36.40;;;20.77;;
76935;SDS011;65881;52.438;16.744;2023-03-19T16:01:56;28.42;;;20.50;;
76935;SDS011;65881;52.438;16.744;2023-03-19T16:06:53;30.42;;;20.80;;
76935;SDS011;65881;52.438;16.744;2023-03-19T16:09:23;31.60;;;21.15;;
76935;SDS011;65881;52.438;16.744;2023-03-19T16:11:51;34.67;;;22.13;;
76935;SDS011;65881;52.438;16.744;2023-03-19T16:17:10;37.05;;;21.75;;
76935;SDS011;65881;52.438;16.744;2023-03-19T16:25:32;36.72;;;24.50;;
76935;SDS011;65881;52.438;16.744;2023-03-19T16:31:26;34.28;;;22.42;;
76935;SDS011;65881;52.438;16.744;2023-03-19T16:40:00;37.00;;;24.45;;
76935;SDS011;65881;52.438;16.744;2023-03-19T16:42:50;40.45;;;26.42;;
76935;SDS011;65881;52.438;16.744;2023-03-19T16:45:31;50.03;;;28.25;;
76935;SDS011;65881;52.438;16.744;2023-03-19T16:48:08;44.60;;;27.90;;
76935;SDS011;65881;52.438;16.744;2023-03-19T16:50:38;41.90;;;26.30;;
76935;SDS011;65881;52.438;16.744;2023-03-19T16:55:38;39.90;;;23.95;;